Time;durP1;ratioP1;P1;durP2;ratioP2;P2;SDS_P1;SDS_P2;PMS_P1;PMS_P2;Temp;Humidity;BMP_temperature;BMP_pressure;BME280_temperature;BME280_humidity;BME280_pressure;Samples;Min_cycle;Max_cycle;Signal;HPM_P1;HPM_P2
2022/09/26 00:00:03;;;;;;;;;;;;;;;14.32;71.54;99539.41;347550;28;1224;-77
2022/09/26 00:00:15;;;;;;;;;;;;;;;14.28;71.60;99535.28;344908;28;1276;-77
2022/09/26 00:00:26;;;;;;;;;;;;;;;14.28;71.95;99533.50;346273;28;885;-77
2022/09/26 00:00:36;;;;;;;;;;;;;;;14.28;71.71;99537.94;345202;28;805;-76
2022/09/26 00:00:47;;;;;;;;;;;;;;;14.26;72.07;99534.53;343717;28;1405;-76
2022/09/26 00:01:03;;;;;;;;;;;;;;;14.24;71.81;99531.97;345540;28;1544;-76
2022/09/26 00:01:17;;;;;;;;;;;;;;;14.27;71.72;99537.06;345581;28;1581;-76
2022/09/26 00:01:28;;;;;;;;;;;;;;;14.29;71.90;99534.34;346757;28;952;-76
2022/09/26 00:01:39;;;;;;;;;;;;;;;14.25;71.91;99538.94;346318;28;1525;-76
2022/09/26 00:01:49;;;;;;;;;;;;;;;14.24;71.94;99534.63;346300;28;1222;-76
2022/09/26 00:01:59;;;;;;;;;;;;;;;14.22;72.14;99533.00;346954;28;883;-76
2022/09/26 00:02:10;;;;;;;;;;;;;;;14.22;72.26;99531.22;346136;28;1367;-76
2022/09/26 00:02:20;;;;;;;;;;;;;;;14.24;72.21;99533.78;345199;28;766;-76
2022/09/26 00:02:30;;;;;;;;;;;;;;;14.25;72.21;99528.41;344970;28;1198;-76
2022/09/26 00:02:40;;;;;;;;;;;;;;;14.24;72.49;99525.88;345147;28;1103;-76
2022/09/26 00:02:51;;;;;;;;;;;;;;;14.22;72.18;99533.84;346061;28;1896;-76
2022/09/26 00:03:01;;;;;;;;;;;;;;;14.22;72.32;99533.84;348678;28;1199;-76
2022/09/26 00:03:11;;;;;;;;;;;;;;;14.23;72.39;99530.28;345394;28;1260;-76
2022/09/26 00:03:21;;;;;;;;;;;;;;;14.22;72.83;99528.59;347794;28;1330;-76
2022/09/26 00:03:32;;;;;;;;;;;;;;;14.24;72.62;99529.34;344028;28;953;-76
2022/09/26 00:03:43;;;;;;;;;;;;;;;14.22;72.70;99528.59;343962;28;1232;-76
2022/09/26 00:03:57;;;;;;;;;;;;;;;14.21;72.85;99531.31;342329;28;1328;-76
2022/09/26 00:04:15;;;;;;;;;;;;;;;14.23;72.98;99530.28;342285;28;1355;-76
2022/09/26 00:04:26;;;;;;;;;;;;;;;14.20;73.46;99522.56;338814;29;1691;-76
2022/09/26 00:04:37;;;;;;;;;;;;;;;14.19;73.38;99534.03;339633;29;1351;-76
2022/09/26 00:04:47;;;;;;;;;;;;;;;14.20;73.46;99534.88;339057;29;1908;-76
2022/09/26 00:04:57;;;;;;;;;;;;;;;14.19;73.46;99534.03;338832;28;1614;-76
2022/09/26 00:05:09;;;;;;;;;;;;;;;14.19;73.55;99527.91;342082;28;1807;-76
2022/09/26 00:05:20;;;;;;;;;;;;;;;14.19;73.61;99534.03;342280;28;1357;-76
2022/09/26 00:05:31;;;;;;;;;;;;;;;14.18;73.95;99532.34;342206;28;934;-76
2022/09/26 00:05:41;;;;;;;;;;;;;;;14.18;73.79;99531.47;338435;29;1538;-76
2022/09/26 00:05:52;;;;;;;;;;;;;;;14.18;73.76;99531.47;337239;29;1327;-76
2022/09/26 00:06:02;;;;;;;;;;;;;;;14.18;nan;99536.75;337455;29;1955;-76
2022/09/26 00:06:14;;;;;;;;;;;;;;;14.15;74.50;99526.38;338750;28;1775;-76
2022/09/26 00:06:25;;;;;;;;;;;;;;;14.16;74.28;99522.81;340299;28;2040;-76
2022/09/26 00:06:35;;;;;;;;;;;;;;;14.16;74.26;99528.94;337206;29;1005;-76
2022/09/26 00:06:45;;;;;;;;;;;;;;;14.15;74.63;99529.88;334991;29;2109;-76
2022/09/26 00:06:55;;;;;;;;;;;;;;;14.14;74.74;99530.81;334863;29;1582;-76
2022/09/26 00:07:06;;;;;;;;;;;;;;;14.13;74.46;99521.22;337200;29;1192;-76
2022/09/26 00:07:17;;;;;;;;;;;;;;;14.13;74.88;99531.75;339080;29;1211;-76
2022/09/26 00:07:27;;;;;;;;;;;;;;;14.12;74.53;99527.41;339495;29;1184;-76
2022/09/26 00:07:37;;;;;;;;;;;;;;;14.14;74.90;99522.91;337116;29;1287;-76
2022/09/26 00:07:47;;;;;;;;;;;;;;;14.13;74.65;99526.47;335770;29;1802;-76
2022/09/26 00:07:58;;;;;;;;;;;;;;;14.14;74.89;99525.53;331169;29;2195;-76
2022/09/26 00:08:08;;;;;;;;;;;;;;;14.15;74.67;99524.59;327046;30;909;-76
2022/09/26 00:08:18;;;;;;;;;;;;;;;14.15;74.74;99523.75;326182;30;2455;-76
2022/09/26 00:08:28;;;;;;;;;;;;;;;14.16;74.82;99522.81;326068;29;2332;-76
2022/09/26 00:08:39;;;;;;;;;;;;;;;14.14;74.64;99525.53;327194;30;1207;-76
2022/09/26 00:08:49;;;;;;;;;;;;;;;14.15;74.26;99524.59;324475;30;2482;-76
2022/09/26 00:08:59;;;;;;;;;;;;;;;14.14;74.42;99520.28;324367;30;2643;-76
2022/09/26 00:09:10;;;;;;;;;;;;;;;14.14;73.97;99522.91;327481;30;1548;-76
2022/09/26 00:09:20;;;;;;;;;;;;;;;14.16;74.11;99525.47;323329;30;1224;-76
2022/09/26 00:09:31;;;;;;;;;;;;;;;14.18;73.84;99519.16;320870;30;1263;-76
2022/09/26 00:09:41;;;;;;;;;;;;;;;14.19;73.35;99520.88;320855;30;2449;-76
2022/09/26 00:09:53;;;;;;;;;;;;;;;14.20;73.32;99519.94;319959;30;854;-76
2022/09/26 00:10:03;;;;;;;;;;;;;;;14.19;73.14;99526.13;319473;30;2846;-76
2022/09/26 00:10:14;;;;;;;;;;;;;;;14.20;73.33;99519.94;315842;30;3422;-76
2022/09/26 00:10:24;;;;;;;;;;;;;;;14.22;73.19;99522.47;314323;31;847;-76
2022/09/26 00:10:34;;;;;;;;;;;;;;;14.21;73.21;99519.00;313392;31;3164;-76
2022/09/26 00:10:44;;;;;;;;;;;;;;;14.22;73.18;99523.31;313516;31;2979;-76
2022/09/26 00:10:57;;;;;;;;;;;;;;;14.23;73.02;99524.19;315808;31;1518;-76
2022/09/26 00:11:07;;;;;;;;;;;;;;;14.23;73.16;99522.38;312960;31;1255;-76
2022/09/26 00:11:19;;;;;;;;;;;;;;;14.24;73.11;99520.59;311731;31;3206;-76
2022/09/26 00:11:30;;;;;;;;;;;;;;;14.23;73.01;99522.38;313727;31;2564;-76
2022/09/26 00:11:40;;;;;;;;;;;;;;;14.22;73.38;99527.75;315038;31;2402;-76
2022/09/26 00:11:51;;;;;;;;;;;;;;;14.21;73.39;99520.78;311847;31;1347;-76
2022/09/26 00:12:03;;;;;;;;;;;;;;;14.19;73.68;99523.50;308557;31;2908;-76
2022/09/26 00:12:13;;;;;;;;;;;;;;;14.19;73.66;99523.50;308443;31;3841;-76
2022/09/26 00:12:23;;;;;;;;;;;;;;;14.20;73.39;99525.19;308849;31;1390;-76
2022/09/26 00:12:34;;;;;;;;;;;;;;;14.20;73.53;99525.19;310990;31;4490;-76
2022/09/26 00:12:44;;;;;;;;;;;;;;;14.20;73.54;99525.19;309562;31;4084;-76
2022/09/26 00:12:55;;;;;;;;;;;;;;;14.20;73.26;99526.97;308559;31;2083;-76
2022/09/26 00:13:05;;;;;;;;;;;;;;;14.18;73.26;99527.06;304336;32;1932;-76
2022/09/26 00:13:15;;;;;;;;;;;;;;;14.16;72.91;99528.94;303716;32;4157;-76
2022/09/26 00:13:26;;;;;;;;;;;;;;;14.15;73.00;99529.88;303072;32;5105;-76
2022/09/26 00:13:37;;;;;;;;;;;;;;;14.15;73.06;99521.13;305449;32;1356;-77
2022/09/26 00:13:49;;;;;;;;;;;;;;;14.14;73.05;99522.91;303185;32;3415;-77
2022/09/26 00:14:04;;;;;;;;;;;;;;;14.14;73.07;99522.91;304079;32;2979;-77
2022/09/26 00:14:15;;;;;;;;;;;;;;;14.13;73.69;99525.63;304273;32;4194;-77
2022/09/26 00:14:26;;;;;;;;;;;;;;;14.11;73.22;99530.97;301400;32;5345;-77
2022/09/26 00:14:36;;;;;;;;;;;;;;;14.13;73.43;99523.84;299719;32;1341;-77
2022/09/26 00:14:46;;;;;;;;;;;;;;;14.12;73.61;99522.16;297404;32;5977;-77
2022/09/26 00:14:57;;;;;;;;;;;;;;;14.11;73.44;99525.72;295002;33;5421;-76
2022/09/26 00:15:07;;;;;;;;;;;;;;;14.09;73.51;99527.59;295320;33;901;-77
2022/09/26 00:15:17;;;;;;;;;;;;;;;14.10;73.34;99528.44;291396;33;6262;-77
2022/09/26 00:15:28;;;;;;;;;;;;;;;14.11;72.75;99525.72;290913;33;5524;-77
2022/09/26 00:15:38;;;;;;;;;;;;;;;14.10;72.71;99520.53;291249;34;1323;-76
2022/09/26 00:15:48;;;;;;;;;;;;;;;14.11;72.38;99525.72;289610;34;6331;-76
2022/09/26 00:15:58;;;;;;;;;;;;;;;14.11;72.31;99525.72;285940;34;5041;-76
2022/09/26 00:16:09;;;;;;;;;;;;;;;14.10;71.88;99521.38;283862;34;1335;-76
2022/09/26 00:16:19;;;;;;;;;;;;;;;14.12;71.94;99523.94;284973;34;4441;-76
2022/09/26 00:16:29;;;;;;;;;;;;;;;14.10;71.72;99523.16;283718;34;6530;-76
2022/09/26 00:16:40;;;;;;;;;;;;;;;14.10;71.57;99523.16;282911;35;1356;-76
2022/09/26 00:16:50;;;;;;;;;;;;;;;14.09;71.65;99519.69;280181;35;1378;-76
2022/09/26 00:17:00;;;;;;;;;;;;;;;14.08;71.21;99520.63;277370;35;8570;-77
2022/09/26 00:17:11;;;;;;;;;;;;;;;14.08;71.23;99525.03;275437;35;7755;-77
2022/09/26 00:17:21;;;;;;;;;;;;;;;14.08;71.35;99525.88;278693;35;1542;-76
2022/09/26 00:17:31;;;;;;;;;;;;;;;14.06;71.18;99522.50;275498;35;9300;-76
2022/09/26 00:17:42;;;;;;;;;;;;;;;14.05;71.07;99520.78;274130;35;7586;-76
2022/09/26 00:17:52;;;;;;;;;;;;;;;14.04;71.00;99519.09;270697;36;1236;-76
2022/09/26 00:18:02;;;;;;;;;;;;;;;14.05;70.86;99523.44;267481;36;8600;-76
2022/09/26 00:20:03;;;;;;;;;;;;;;;14.07;69.93;99524.19;2500440;27;19933;-75
2022/09/26 00:20:13;;;;;;;;;;;;;;;14.07;69.73;99524.19;354865;27;816;-75
2022/09/26 00:20:23;;;;;;;;;;;;;;;14.08;69.89;99519.78;353589;28;870;-75
2022/09/26 00:20:35;;;;;;;;;;;;;;;14.07;69.66;99523.34;350657;28;1425;-75
2022/09/26 00:20:45;;;;;;;;;;;;;;;14.07;69.74;99518.94;349312;28;1203;-75
2022/09/26 00:21:22;;;;;;;;;;;;;;;14.08;69.70;99519.78;349040;28;1532;-75
2022/09/26 00:21:32;;;;;;;;;;;;;;;14.07;69.58;99520.72;345882;28;1301;-75
2022/09/26 00:21:42;;;;;;;;;;;;;;;14.04;69.67;99519.09;348403;28;1528;-76
2022/09/26 00:21:52;;;;;;;;;;;;;;;14.04;69.52;99519.09;347924;28;1446;-76
2022/09/26 00:22:03;;;;;;;;;;;;;;;14.04;69.59;99524.34;348231;28;1439;-77
2022/09/26 00:22:13;;;;;;;;;;;;;;;14.03;69.65;99517.41;347075;28;1436;-77
2022/09/26 00:22:23;;;;;;;;;;;;;;;14.03;69.69;99522.66;345413;28;1355;-77
2022/09/26 00:22:33;;;;;;;;;;;;;;;14.05;69.39;99512.91;346741;28;1258;-77
2022/09/26 00:22:44;;;;;;;;;;;;;;;14.05;69.79;99515.53;346484;28;1223;-77
2022/09/26 00:22:54;;;;;;;;;;;;;;;14.05;69.76;99517.31;348026;28;1324;-77
2022/09/26 00:23:04;;;;;;;;;;;;;;;14.07;69.61;99518.06;348781;28;1378;-77
2022/09/26 00:23:14;;;;;;;;;;;;;;;14.04;69.50;99519.09;345970;28;1520;-77
2022/09/26 00:23:24;;;;;;;;;;;;;;;14.05;69.51;99519.94;346239;28;1522;-77
2022/09/26 00:23:35;;;;;;;;;;;;;;;14.05;69.63;99515.53;350712;28;1259;-77
2022/09/26 00:23:45;;;;;;;;;;;;;;;14.05;69.42;99518.16;351604;28;1222;-77
2022/09/26 00:23:56;;;;;;;;;;;;;;;14.04;69.42;99516.47;348854;28;1210;-77
2022/09/26 00:24:06;;;;;;;;;;;;;;;14.02;69.47;99515.69;346533;28;1358;-77
2022/09/26 00:24:16;;;;;;;;;;;;;;;14.01;68.90;99514.00;349336;28;855;-77
2022/09/26 00:24:26;;;;;;;;;;;;;;;13.98;69.16;99522.06;351386;28;1026;-76
2022/09/26 00:24:37;;;;;;;;;;;;;;;13.98;68.97;99514.19;351926;28;913;-76
2022/09/26 00:24:47;;;;;;;;;;;;;;;13.98;69.03;99515.03;349868;28;861;-77
2022/09/26 00:24:57;;;;;;;;;;;;;;;13.98;68.92;99515.03;349245;28;805;-76
2022/09/26 00:25:07;;;;;;;;;;;;;;;14.01;68.92;99516.63;350616;28;1438;-75
2022/09/26 00:25:18;;;;;;;;;;;;;;;14.01;68.73;99513.16;347761;28;1297;-75
2022/09/26 00:25:28;;;;;;;;;;;;;;;14.02;68.99;99517.47;347937;28;1118;-75
2022/09/26 00:25:45;;;;;;;;;;;;;;;14.02;68.85;99515.69;349349;28;899;-77
2022/09/26 00:25:55;;;;;;;;;;;;;;;14.01;68.79;99516.63;346900;28;1571;-77
2022/09/26 00:26:05;;;;;;;;;;;;;;;14.03;68.39;99517.41;344931;28;1237;-77
2022/09/26 00:26:16;;;;;;;;;;;;;;;14.04;68.85;99518.25;346087;28;1293;-77
2022/09/26 00:26:28;;;;;;;;;;;;;;;14.04;68.70;99516.47;345382;28;1196;-77
2022/09/26 00:26:38;;;;;;;;;;;;;;;14.04;68.46;99519.09;342325;28;1437;-77
2022/09/26 00:26:48;;;;;;;;;;;;;;;14.03;68.29;99516.56;342334;28;739;-77
2022/09/26 00:26:58;;;;;;;;;;;;;;;14.04;68.37;99518.25;340290;29;821;-77
2022/09/26 00:27:08;;;;;;;;;;;;;;;14.05;68.24;99514.69;341816;28;1207;-77
2022/09/26 00:27:19;;;;;;;;;;;;;;;14.05;68.27;99514.69;342291;28;1305;-77
2022/09/26 00:27:30;;;;;;;;;;;;;;;14.02;68.45;99518.34;343506;28;1373;-77
2022/09/26 00:27:40;;;;;;;;;;;;;;;14.04;68.23;99513.84;342261;28;933;-77
2022/09/26 00:27:50;;;;;;;;;;;;;;;14.02;68.08;99513.06;339620;29;1202;-77
2022/09/26 00:28:00;;;;;;;;;;;;;;;14.03;67.99;99520.03;340613;29;1411;-77
2022/09/26 00:28:10;;;;;;;;;;;;;;;14.02;68.03;99514.84;336327;29;1645;-76
2022/09/26 00:28:21;;;;;;;;;;;;;;;14.01;68.38;99513.16;336951;29;1603;-76
2022/09/26 00:28:31;;;;;;;;;;;;;;;14.00;68.17;99514.94;336918;29;1373;-77
2022/09/26 00:28:41;;;;;;;;;;;;;;;14.01;68.11;99513.16;338088;28;1531;-77
2022/09/26 00:28:52;;;;;;;;;;;;;;;14.00;68.51;99512.31;339370;29;1980;-77
2022/09/26 00:29:06;;;;;;;;;;;;;;;14.01;68.31;99514.00;341088;29;963;-77
2022/09/26 00:29:16;;;;;;;;;;;;;;;13.99;68.21;99511.47;339776;29;849;-77
2022/09/26 00:29:26;;;;;;;;;;;;;;;14.01;68.52;99516.63;339701;29;766;-77
2022/09/26 00:29:37;;;;;;;;;;;;;;;14.00;68.09;99517.56;338683;29;992;-77
2022/09/26 00:29:47;;;;;;;;;;;;;;;14.00;67.89;99520.19;336154;29;1183;-76
2022/09/26 00:29:57;;;;;;;;;;;;;;;14.00;68.24;99512.31;336084;29;1424;-76
2022/09/26 00:30:08;;;;;;;;;;;;;;;13.99;68.55;99521.13;336981;29;1817;-77
2022/09/26 00:30:18;;;;;;;;;;;;;;;13.97;68.29;99520.38;340997;29;873;-77
2022/09/26 00:30:28;;;;;;;;;;;;;;;13.96;68.61;99514.25;339187;29;1816;-76
2022/09/26 00:30:39;;;;;;;;;;;;;;;13.94;68.92;99518.75;339378;29;1819;-78
2022/09/26 00:30:49;;;;;;;;;;;;;;;13.92;68.97;99517.16;337118;29;1444;-77
2022/09/26 00:31:06;;;;;;;;;;;;;;;13.92;68.56;99519.78;333839;29;2104;-77
2022/09/26 00:31:20;;;;;;;;;;;;;;;13.92;69.02;99514.53;330899;29;1633;-77
2022/09/26 00:31:32;;;;;;;;;;;;;;;13.90;69.38;99516.38;333702;29;861;-77
2022/09/26 00:31:43;;;;;;;;;;;;;;;13.88;69.31;99515.63;333634;29;1254;-77
2022/09/26 00:31:53;;;;;;;;;;;;;;;13.87;69.31;99516.56;328770;29;1866;-77
2022/09/26 00:32:03;;;;;;;;;;;;;;;13.85;69.60;99513.19;324308;30;1457;-77
2022/09/26 00:32:13;;;;;;;;;;;;;;;13.84;69.48;99511.50;325232;30;2146;-77
2022/09/26 00:32:24;;;;;;;;;;;;;;;13.84;70.01;99516.75;324847;30;2180;-77
2022/09/26 00:32:34;;;;;;;;;;;;;;;13.83;69.84;99512.44;327133;30;793;-77
2022/09/26 00:32:44;;;;;;;;;;;;;;;13.83;70.06;99515.06;327512;30;2368;-77
2022/09/26 00:32:55;;;;;;;;;;;;;;;13.81;69.75;99517.78;326499;30;2449;-77
2022/09/26 00:33:05;;;;;;;;;;;;;;;13.82;69.86;99514.22;322678;30;1306;-76
2022/09/26 00:33:15;;;;;;;;;;;;;;;13.83;69.86;99509.81;322073;30;2583;-76
2022/09/26 00:33:26;;;;;;;;;;;;;;;13.85;69.94;99513.19;321476;30;1868;-76
2022/09/26 00:33:36;;;;;;;;;;;;;;;13.85;69.98;99518.47;322143;30;1678;-76
2022/09/26 00:33:46;;;;;;;;;;;;;;;13.86;69.80;99512.25;319813;30;1344;-76
2022/09/26 00:33:56;;;;;;;;;;;;;;;13.87;69.80;99516.56;318851;30;2109;-76
2022/09/26 00:34:07;;;;;;;;;;;;;;;13.89;69.50;99510.28;319425;30;2469;-76
2022/09/26 00:34:17;;;;;;;;;;;;;;;13.89;69.46;99514.69;323370;30;747;-76
2022/09/26 00:34:27;;;;;;;;;;;;;;;13.89;69.71;99514.69;321974;30;2707;-76
2022/09/26 00:34:38;;;;;;;;;;;;;;;13.90;69.49;99516.38;318915;30;2505;-77
2022/09/26 00:34:49;;;;;;;;;;;;;;;13.91;69.57;99516.31;314510;31;1169;-77
2022/09/26 00:34:59;;;;;;;;;;;;;;;13.91;69.30;99508.41;313138;30;3100;-76
2022/09/26 00:35:09;;;;;;;;;;;;;;;13.91;69.45;99511.03;313404;31;3415;-76
2022/09/26 00:35:20;;;;;;;;;;;;;;;13.91;69.64;99518.09;310941;31;1387;-76
2022/09/26 00:35:30;;;;;;;;;;;;;;;13.89;69.74;99519.94;311191;31;3333;-76
2022/09/26 00:35:40;;;;;;;;;;;;;;;13.83;69.87;99515.06;310825;31;2461;-76
2022/09/26 00:35:54;;;;;;;;;;;;;;;13.80;69.88;99515.22;312002;31;1265;-76
2022/09/26 00:36:04;;;;;;;;;;;;;;;13.80;69.92;99512.59;309497;31;1300;-77
2022/09/26 00:36:15;;;;;;;;;;;;;;;13.80;70.13;99515.22;306730;31;3054;-76
2022/09/26 00:36:25;;;;;;;;;;;;;;;13.77;70.10;99512.78;304128;32;5660;-77
2022/09/26 00:36:35;;;;;;;;;;;;;;;13.75;69.83;99506.75;302311;32;1429;-77
2022/09/26 00:36:46;;;;;;;;;;;;;;;13.75;70.31;99509.38;300198;32;4200;-77
2022/09/26 00:36:57;;;;;;;;;;;;;;;13.75;70.07;99512.00;299486;32;4340;-77
2022/09/26 00:37:07;;;;;;;;;;;;;;;13.77;70.02;99507.50;297409;33;4544;-77
2022/09/26 00:37:17;;;;;;;;;;;;;;;13.77;70.06;99510.13;298203;33;1237;-77
2022/09/26 00:37:27;;;;;;;;;;;;;;;13.78;69.95;99511.84;299795;32;4267;-77
2022/09/26 00:37:38;;;;;;;;;;;;;;;13.78;70.26;99503.94;299586;32;4810;-77
2022/09/26 00:37:48;;;;;;;;;;;;;;;13.78;70.25;99511.84;297303;33;881;-77
2022/09/26 00:37:58;;;;;;;;;;;;;;;13.80;70.29;99512.59;293216;33;3653;-76
2022/09/26 00:38:08;;;;;;;;;;;;;;;13.81;70.22;99509.03;290800;33;3700;-76
2022/09/26 00:38:19;;;;;;;;;;;;;;;13.81;70.13;99506.41;293332;33;741;-76
2022/09/26 00:38:29;;;;;;;;;;;;;;;13.80;70.24;99502.06;287479;34;4861;-76
2022/09/26 00:38:40;;;;;;;;;;;;;;;13.80;70.11;99508.19;284736;34;5780;-76
2022/09/26 00:38:50;;;;;;;;;;;;;;;13.81;70.24;99507.25;285547;34;1491;-76
2022/09/26 00:39:00;;;;;;;;;;;;;;;13.81;70.12;99506.41;283726;34;7532;-77
2022/09/26 00:39:11;;;;;;;;;;;;;;;13.82;70.37;99508.09;281807;34;6155;-76
2022/09/26 00:39:21;;;;;;;;;;;;;;;13.82;70.16;99506.31;282057;35;827;-76
2022/09/26 00:39:32;;;;;;;;;;;;;;;13.83;70.16;99512.44;280164;35;1249;-76
2022/09/26 00:39:42;;;;;;;;;;;;;;;13.83;70.08;99499.28;276915;35;6591;-76
2022/09/26 00:39:52;;;;;;;;;;;;;;;13.84;70.16;99506.25;275843;35;6171;-76
2022/09/26 00:40:03;;;;;;;;;;;;;;;13.82;69.96;99508.94;274935;35;1365;-76
2022/09/26 00:40:14;;;;;;;;;;;;;;;13.82;70.23;99508.94;274991;35;5107;-74
2022/09/26 00:40:26;;;;;;;;;;;;;;;13.81;70.44;99503.78;273864;35;5880;-75
2022/09/26 00:40:36;;;;;;;;;;;;;;;13.81;69.91;99502.00;274169;36;3460;-75
2022/09/26 00:40:47;;;;;;;;;;;;;;;13.81;70.08;99509.03;268374;36;1024;-75
2022/09/26 00:40:57;;;;;;;;;;;;;;;13.81;70.03;99503.78;265799;36;9336;-75
2022/09/26 00:41:07;;;;;;;;;;;;;;;13.81;70.05;99506.41;264298;37;9669;-75
2022/09/26 00:41:18;;;;;;;;;;;;;;;13.80;70.00;99499.44;261883;37;1348;-75
2022/09/26 00:41:28;;;;;;;;;;;;;;;13.80;70.14;99499.44;260594;37;8385;-76
2022/09/26 00:41:38;;;;;;;;;;;;;;;13.79;70.24;99503.00;259742;37;9378;-76
2022/09/26 00:41:48;;;;;;;;;;;;;;;13.78;70.18;99506.56;259764;38;1130;-76
2022/09/26 00:43:45;;;;;;;;;;;;;;;13.75;69.68;99506.75;2498545;27;19937;-75
2022/09/26 00:43:55;;;;;;;;;;;;;;;13.72;70.01;99501.66;354583;27;1379;-76
2022/09/26 00:44:24;;;;;;;;;;;;;;;13.75;69.92;99506.75;353336;28;795;-76
2022/09/26 00:44:41;;;;;;;;;;;;;;;13.77;69.70;99512.78;351900;28;1266;-76
2022/09/26 00:44:55;;;;;;;;;;;;;;;13.74;69.81;99510.31;351847;28;1359;-77
2022/09/26 00:45:07;;;;;;;;;;;;;;;13.76;69.86;99508.44;349995;28;1323;-78
2022/09/26 00:45:17;;;;;;;;;;;;;;;13.74;70.00;99505.91;349389;28;1805;-77
2022/09/26 00:45:32;;;;;;;;;;;;;;;13.73;70.03;99503.34;350444;28;1276;-77
2022/09/26 00:45:42;;;;;;;;;;;;;;;13.73;69.82;99503.34;353382;28;851;-77
2022/09/26 00:45:52;;;;;;;;;;;;;;;13.72;70.02;99504.28;353147;28;1437;-77
2022/09/26 00:46:08;;;;;;;;;;;;;;;13.72;69.85;99507.75;348857;28;1200;-77
2022/09/26 00:46:18;;;;;;;;;;;;;;;13.74;69.93;99500.63;346501;28;841;-77
2022/09/26 00:46:33;;;;;;;;;;;;;;;13.73;69.58;99504.19;347568;28;1609;-77
2022/09/26 00:46:45;;;;;;;;;;;;;;;13.75;69.63;99501.47;347598;28;1197;-77
2022/09/26 00:46:55;;;;;;;;;;;;;;;13.73;69.48;99504.19;347588;28;1589;-77
2022/09/26 00:47:06;;;;;;;;;;;;;;;13.72;69.54;99499.88;346792;28;908;-77
2022/09/26 00:47:31;;;;;;;;;;;;;;;13.72;69.57;99501.66;347779;28;840;-77
2022/09/26 00:47:51;;;;;;;;;;;;;;;13.69;69.72;99505.28;347609;28;1246;-77
2022/09/26 00:48:02;;;;;;;;;;;;;;;13.69;69.67;99501.81;347384;28;1419;-77
2022/09/26 00:48:13;;;;;;;;;;;;;;;13.67;70.03;99504.53;343546;28;1335;-77
2022/09/26 00:48:23;;;;;;;;;;;;;;;13.67;69.83;99503.69;343507;28;1498;-76
2022/09/26 00:48:33;;;;;;;;;;;;;;;13.65;69.80;99501.13;345191;28;896;-76
2022/09/26 00:48:44;;;;;;;;;;;;;;;13.67;70.00;99504.53;346384;28;1213;-76
2022/09/26 00:49:13;;;;;;;;;;;;;;;13.67;69.92;99507.16;345020;28;1916;-76
2022/09/26 00:49:27;;;;;;;;;;;;;;;13.68;70.18;99500.13;344718;28;877;-77
2022/09/26 00:49:41;;;;;;;;;;;;;;;13.67;69.83;99501.91;344718;28;1268;-77
2022/09/26 00:49:53;;;;;;;;;;;;;;;13.67;70.13;99498.44;344522;28;1480;-76
2022/09/26 00:50:06;;;;;;;;;;;;;;;13.68;70.07;99505.38;347663;28;1157;-76
2022/09/26 00:50:16;;;;;;;;;;;;;;;13.66;69.87;99502.84;346497;28;876;-76
2022/09/26 00:50:31;;;;;;;;;;;;;;;13.67;69.72;99501.06;344856;28;1382;-76
2022/09/26 00:50:42;;;;;;;;;;;;;;;13.66;70.01;99502.84;344972;28;1356;-77
2022/09/26 00:50:52;;;;;;;;;;;;;;;13.67;69.89;99501.06;342185;28;1545;-77
2022/09/26 00:51:02;;;;;;;;;;;;;;;13.65;69.81;99503.78;340466;28;1318;-77
2022/09/26 00:51:12;;;;;;;;;;;;;;;13.65;70.01;99498.50;341541;28;1460;-77
2022/09/26 00:51:23;;;;;;;;;;;;;;;13.64;69.93;99502.91;341481;28;839;-77
2022/09/26 00:51:34;;;;;;;;;;;;;;;13.63;69.70;99503.84;343472;28;1506;-77
2022/09/26 00:51:45;;;;;;;;;;;;;;;13.63;69.88;99503.84;342381;28;1191;-77
2022/09/26 00:52:06;;;;;;;;;;;;;;;13.63;70.00;99503.84;343967;28;1542;-77
2022/09/26 00:52:18;;;;;;;;;;;;;;;13.63;69.88;99503.84;345089;28;1319;-77
2022/09/26 00:52:39;;;;;;;;;;;;;;;13.61;69.91;99499.59;344996;28;1329;-77
2022/09/26 00:52:55;;;;;;;;;;;;;;;13.60;70.00;99498.75;344044;28;903;-77
2022/09/26 00:53:12;;;;;;;;;;;;;;;13.57;70.00;99504.19;345348;28;1355;-77
2022/09/26 00:53:23;;;;;;;;;;;;;;;13.59;70.05;99507.59;340606;28;1320;-77
2022/09/26 00:53:38;;;;;;;;;;;;;;;13.60;69.94;99503.16;340728;28;1640;-77
2022/09/26 00:53:48;;;;;;;;;;;;;;;13.61;70.16;99497.81;341939;28;1630;-77
2022/09/26 00:53:58;;;;;;;;;;;;;;;13.62;69.92;99510.03;342329;28;1202;-77
2022/09/26 00:54:10;;;;;;;;;;;;;;;13.63;70.06;99498.59;341748;28;1901;-77
2022/09/26 00:54:20;;;;;;;;;;;;;;;13.61;69.78;99500.47;342318;28;2059;-76
2022/09/26 00:54:30;;;;;;;;;;;;;;;13.62;70.01;99507.41;343834;28;757;-76
2022/09/26 00:54:41;;;;;;;;;;;;;;;13.62;70.06;99501.31;344188;28;2143;-76
2022/09/26 00:54:51;;;;;;;;;;;;;;;13.62;69.82;99512.69;340015;29;1857;-76
2022/09/26 00:55:02;;;;;;;;;;;;;;;13.64;70.13;99504.69;339724;29;1286;-76
2022/09/26 00:55:13;;;;;;;;;;;;;;;13.62;69.87;99510.03;339573;29;1031;-76
2022/09/26 00:55:25;;;;;;;;;;;;;;;13.63;69.81;99503.84;336881;29;1184;-76
2022/09/26 00:55:37;;;;;;;;;;;;;;;13.61;70.22;99500.47;334443;29;1715;-76
2022/09/26 00:55:50;;;;;;;;;;;;;;;13.60;70.22;99508.44;330887;29;826;-75
2022/09/26 00:56:02;;;;;;;;;;;;;;;13.58;70.03;99498.00;330485;29;1688;-76
2022/09/26 00:56:25;;;;;;;;;;;;;;;13.57;70.33;99508.59;325110;29;2284;-76
2022/09/26 00:56:35;;;;;;;;;;;;;;;13.55;70.34;99505.19;320441;30;2624;-75
2022/09/26 00:56:46;;;;;;;;;;;;;;;13.52;70.51;99506.22;319839;30;849;-76
2022/09/26 00:56:58;;;;;;;;;;;;;;;13.52;70.27;99506.22;321720;30;2675;-76
2022/09/26 00:57:09;;;;;;;;;;;;;;;13.53;70.38;99501.81;320408;30;1905;-76
2022/09/26 00:57:25;;;;;;;;;;;;;;;13.52;70.63;99506.22;321217;30;1540;-76
2022/09/26 00:57:37;;;;;;;;;;;;;;;13.52;70.15;99503.59;320597;30;1936;-76
2022/09/26 00:57:50;;;;;;;;;;;;;;;13.51;70.34;99501.88;318558;31;1463;-76
2022/09/26 00:58:05;;;;;;;;;;;;;;;13.51;70.34;99503.66;317770;31;1345;-77
2022/09/26 00:58:26;;;;;;;;;;;;;;;13.50;70.70;99499.34;314161;31;1309;-76
2022/09/26 00:58:37;;;;;;;;;;;;;;;13.50;70.48;99500.19;313863;31;3243;-77
2022/09/26 00:58:49;;;;;;;;;;;;;;;13.49;70.56;99500.28;316577;31;886;-76
2022/09/26 00:59:10;;;;;;;;;;;;;;;13.48;70.43;99499.44;314258;31;1229;-76
2022/09/26 00:59:22;;;;;;;;;;;;;;;13.51;70.40;99499.25;309385;31;2503;-76
2022/09/26 00:59:36;;;;;;;;;;;;;;;13.51;70.43;99504.53;308444;31;1627;-76
2022/09/26 00:59:50;;;;;;;;;;;;;;;13.53;70.59;99499.19;306590;32;1292;-76
2022/09/26 01:00:02;;;;;;;;;;;;;;;13.54;70.22;99493.84;305812;32;1592;-76
2022/09/26 01:00:14;;;;;;;;;;;;;;;13.55;70.29;99490.28;306781;32;3454;-76
2022/09/26 01:00:24;;;;;;;;;;;;;;;13.56;70.27;99502.50;306729;32;4613;-76
2022/09/26 01:00:34;;;;;;;;;;;;;;;13.56;70.46;99497.22;304819;32;4113;-76
2022/09/26 01:00:45;;;;;;;;;;;;;;;13.55;70.20;99500.78;306628;32;1423;-76
2022/09/26 01:00:56;;;;;;;;;;;;;;;13.59;70.34;99502.31;303552;32;4455;-76
2022/09/26 01:01:06;;;;;;;;;;;;;;;13.57;69.99;99498.06;302613;32;4441;-76
2022/09/26 01:01:16;;;;;;;;;;;;;;;13.57;70.13;99498.94;303644;32;1826;-76
2022/09/26 01:01:27;;;;;;;;;;;;;;;13.56;70.34;99497.22;300415;32;4897;-76
2022/09/26 01:01:37;;;;;;;;;;;;;;;13.58;70.24;99497.16;302363;32;3551;-77
2022/09/26 01:01:48;;;;;;;;;;;;;;;13.57;70.19;99496.31;302445;32;1274;-76
2022/09/26 01:01:59;;;;;;;;;;;;;;;13.58;70.10;99500.63;296964;33;815;-76
2022/09/26 01:02:09;;;;;;;;;;;;;;;13.58;70.34;99503.25;296179;33;4450;-76
2022/09/26 01:02:19;;;;;;;;;;;;;;;13.57;70.03;99496.31;295419;33;5688;-75
2022/09/26 01:02:29;;;;;;;;;;;;;;;13.55;70.39;99500.78;294920;33;1191;-75
2022/09/26 01:02:40;;;;;;;;;;;;;;;13.53;70.53;99502.66;293695;33;6045;-75
2022/09/26 01:02:50;;;;;;;;;;;;;;;13.52;70.55;99500.09;291568;33;5528;-75
2022/09/26 01:03:01;;;;;;;;;;;;;;;13.50;70.49;99502.81;290291;33;1225;-75
2022/09/26 01:03:11;;;;;;;;;;;;;;;13.48;70.35;99502.06;285160;34;6337;-75
2022/09/26 01:03:21;;;;;;;;;;;;;;;13.48;70.65;99499.44;282581;34;5960;-75
2022/09/26 01:03:32;;;;;;;;;;;;;;;13.48;70.40;99503.84;282871;35;1385;-75
2022/09/26 01:03:42;;;;;;;;;;;;;;;13.48;70.82;99502.06;283507;34;6737;-75
2022/09/26 01:03:52;;;;;;;;;;;;;;;13.46;70.67;99496.03;283228;34;4934;-75
2022/09/26 01:04:03;;;;;;;;;;;;;;;13.46;70.78;99492.56;283756;34;767;-77
2022/09/26 01:04:13;;;;;;;;;;;;;;;13.46;70.60;99495.19;279319;34;6200;-76
2022/09/26 01:04:24;;;;;;;;;;;;;;;13.45;70.93;99499.59;277924;35;6156;-76